sensor_id;sensor_type;location;lat;lon;timestamp;temperature;humidity
61201;DHT22;47065;52.898;6.992;2023-08-08T00:00:26;12.70;99.90
61201;DHT22;47065;52.898;6.992;2023-08-08T00:02:51;12.60;99.90
61201;DHT22;47065;52.898;6.992;2023-08-08T00:05:17;12.60;99.90
61201;DHT22;47065;52.898;6.992;2023-08-08T00:07:42;12.60;99.90
61201;DHT22;47065;52.898;6.992;2023-08-08T00:10:08;12.70;99.90
61201;DHT22;47065;52.898;6.992;2023-08-08T00:12:34;12.60;99.90
61201;DHT22;47065;52.898;6.992;2023-08-08T00:15:00;12.70;99.90
61201;DHT22;47065;52.898;6.992;2023-08-08T00:17:25;12.70;99.90
61201;DHT22;47065;52.898;6.992;2023-08-08T00:19:51;12.80;99.90
61201;DHT22;47065;52.898;6.992;2023-08-08T00:22:17;12.80;99.90
61201;DHT22;47065;52.898;6.992;2023-08-08T00:24:42;12.90;99.90
61201;DHT22;47065;52.898;6.992;2023-08-08T00:27:08;12.90;99.90
61201;DHT22;47065;52.898;6.992;2023-08-08T00:29:33;13.00;99.90
61201;DHT22;47065;52.898;6.992;2023-08-08T00:31:59;13.00;99.90
61201;DHT22;47065;52.898;6.992;2023-08-08T00:34:25;13.10;99.90
61201;DHT22;47065;52.898;6.992;2023-08-08T00:36:51;13.10;99.90
61201;DHT22;47065;52.898;6.992;2023-08-08T00:39:16;13.10;99.90
61201;DHT22;47065;52.898;6.992;2023-08-08T00:41:42;13.10;99.90
61201;DHT22;47065;52.898;6.992;2023-08-08T00:44:07;13.20;99.90
61201;DHT22;47065;52.898;6.992;2023-08-08T00:46:33;13.10;99.90
61201;DHT22;47065;52.898;6.992;2023-08-08T00:48:59;13.20;99.90
61201;DHT22;47065;52.898;6.992;2023-08-08T00:51:25;13.20;99.90
61201;DHT22;47065;52.898;6.992;2023-08-08T00:53:51;13.20;99.90
61201;DHT22;47065;52.898;6.992;2023-08-08T00:56:17;13.20;99.90
61201;DHT22;47065;52.898;6.992;2023-08-08T00:58:43;13.30;99.90
61201;DHT22;47065;52.898;6.992;2023-08-08T01:01:11;13.30;99.90
61201;DHT22;47065;52.898;6.992;2023-08-08T01:03:37;13.30;99.90
61201;DHT22;47065;52.898;6.992;2023-08-08T01:06:08;13.30;99.90
61201;DHT22;47065;52.898;6.992;2023-08-08T01:08:43;13.30;99.90
61201;DHT22;47065;52.898;6.992;2023-08-08T01:11:11;13.30;99.90
61201;DHT22;47065;52.898;6.992;2023-08-08T01:13:37;13.30;99.90
61201;DHT22;47065;52.898;6.992;2023-08-08T01:16:04;13.30;99.90
61201;DHT22;47065;52.898;6.992;2023-08-08T01:18:32;13.30;99.90
61201;DHT22;47065;52.898;6.992;2023-08-08T01:20:58;13.30;99.90
61201;DHT22;47065;52.898;6.992;2023-08-08T01:25:53;13.30;99.90
61201;DHT22;47065;52.898;6.992;2023-08-08T01:28:23;13.40;99.90
61201;DHT22;47065;52.898;6.992;2023-08-08T01:30:49;13.40;99.90
61201;DHT22;47065;52.898;6.992;2023-08-08T01:33:14;13.30;99.90
61201;DHT22;47065;52.898;6.992;2023-08-08T01:35:43;13.30;99.90
61201;DHT22;47065;52.898;6.992;2023-08-08T01:41:07;13.30;99.90
61201;DHT22;47065;52.898;6.992;2023-08-08T01:43:34;13.40;99.90
61201;DHT22;47065;52.898;6.992;2023-08-08T01:46:01;13.30;99.90
61201;DHT22;47065;52.898;6.992;2023-08-08T01:48:28;13.30;99.90
61201;DHT22;47065;52.898;6.992;2023-08-08T01:50:54;13.30;99.90
61201;DHT22;47065;52.898;6.992;2023-08-08T01:53:19;13.30;99.90
61201;DHT22;47065;52.898;6.992;2023-08-08T01:55:45;13.30;99.90
61201;DHT22;47065;52.898;6.992;2023-08-08T01:58:10;13.30;99.90
61201;DHT22;47065;52.898;6.992;2023-08-08T02:00:36;13.30;99.90
61201;DHT22;47065;52.898;6.992;2023-08-08T02:03:03;13.20;99.90
61201;DHT22;47065;52.898;6.992;2023-08-08T02:05:28;13.20;99.90
61201;DHT22;47065;52.898;6.992;2023-08-08T02:07:54;13.20;99.90
61201;DHT22;47065;52.898;6.992;2023-08-08T02:10:20;13.20;99.90
61201;DHT22;47065;52.898;6.992;2023-08-08T02:12:45;13.20;99.90
61201;DHT22;47065;52.898;6.992;2023-08-08T02:15:11;13.20;99.90
61201;DHT22;47065;52.898;6.992;2023-08-08T02:17:38;13.20;99.90
61201;DHT22;47065;52.898;6.992;2023-08-08T02:20:05;13.20;99.90
61201;DHT22;47065;52.898;6.992;2023-08-08T02:22:32;13.20;99.90
61201;DHT22;47065;52.898;6.992;2023-08-08T02:24:57;13.20;99.90
61201;DHT22;47065;52.898;6.992;2023-08-08T02:27:23;13.20;99.90
61201;DHT22;47065;52.898;6.992;2023-08-08T02:29:49;13.20;99.90
61201;DHT22;47065;52.898;6.992;2023-08-08T02:32:14;13.20;99.90
61201;DHT22;47065;52.898;6.992;2023-08-08T02:34:40;13.30;99.90
61201;DHT22;47065;52.898;6.992;2023-08-08T02:37:06;13.30;99.90
61201;DHT22;47065;52.898;6.992;2023-08-08T02:39:32;13.30;99.90
61201;DHT22;47065;52.898;6.992;2023-08-08T02:41:57;13.30;99.90
61201;DHT22;47065;52.898;6.992;2023-08-08T02:44:23;13.30;99.90
61201;DHT22;47065;52.898;6.992;2023-08-08T02:46:49;13.30;99.90
61201;DHT22;47065;52.898;6.992;2023-08-08T02:49:14;13.30;99.90
61201;DHT22;47065;52.898;6.992;2023-08-08T02:51:40;13.30;99.90
61201;DHT22;47065;52.898;6.992;2023-08-08T02:54:06;13.30;99.90
61201;DHT22;47065;52.898;6.992;2023-08-08T02:56:31;13.30;99.90
61201;DHT22;47065;52.898;6.992;2023-08-08T02:58:57;13.30;99.90
61201;DHT22;47065;52.898;6.992;2023-08-08T03:01:23;13.30;99.90
61201;DHT22;47065;52.898;6.992;2023-08-08T03:03:49;13.30;99.90
61201;DHT22;47065;52.898;6.992;2023-08-08T03:06:15;13.30;99.90
61201;DHT22;47065;52.898;6.992;2023-08-08T03:08:41;13.30;99.90
61201;DHT22;47065;52.898;6.992;2023-08-08T03:11:06;13.30;99.90
61201;DHT22;47065;52.898;6.992;2023-08-08T03:13:32;13.30;99.90
61201;DHT22;47065;52.898;6.992;2023-08-08T03:15:58;13.30;99.90
61201;DHT22;47065;52.898;6.992;2023-08-08T03:18:24;13.30;99.90
61201;DHT22;47065;52.898;6.992;2023-08-08T03:20:51;13.30;99.90
61201;DHT22;47065;52.898;6.992;2023-08-08T03:23:18;13.30;99.90
61201;DHT22;47065;52.898;6.992;2023-08-08T03:25:44;13.30;99.90
61201;DHT22;47065;52.898;6.992;2023-08-08T03:28:09;13.30;99.90
61201;DHT22;47065;52.898;6.992;2023-08-08T03:30:38;13.30;99.90
61201;DHT22;47065;52.898;6.992;2023-08-08T03:33:04;13.30;99.90
61201;DHT22;47065;52.898;6.992;2023-08-08T03:35:30;13.30;99.90
61201;DHT22;47065;52.898;6.992;2023-08-08T03:37:56;13.40;99.90
61201;DHT22;47065;52.898;6.992;2023-08-08T03:40:21;13.40;99.90
61201;DHT22;47065;52.898;6.992;2023-08-08T03:42:47;13.40;99.90
61201;DHT22;47065;52.898;6.992;2023-08-08T03:45:13;13.40;99.90
61201;DHT22;47065;52.898;6.992;2023-08-08T03:47:38;13.40;99.90
61201;DHT22;47065;52.898;6.992;2023-08-08T03:50:05;13.40;99.90
61201;DHT22;47065;52.898;6.992;2023-08-08T03:52:31;13.40;99.90
61201;DHT22;47065;52.898;6.992;2023-08-08T03:54:59;13.40;99.90
61201;DHT22;47065;52.898;6.992;2023-08-08T03:57:25;13.40;99.90
61201;DHT22;47065;52.898;6.992;2023-08-08T03:59:50;13.40;99.90
61201;DHT22;47065;52.898;6.992;2023-08-08T04:02:16;13.40;99.90
61201;DHT22;47065;52.898;6.992;2023-08-08T04:04:42;13.40;99.90
61201;DHT22;47065;52.898;6.992;2023-08-08T04:07:07;13.40;99.90
61201;DHT22;47065;52.898;6.992;2023-08-08T04:09:33;13.40;99.90
61201;DHT22;47065;52.898;6.992;2023-08-08T04:11:58;13.40;99.90
61201;DHT22;47065;52.898;6.992;2023-08-08T04:14:24;13.40;99.90
61201;DHT22;47065;52.898;6.992;2023-08-08T04:16:50;13.40;99.90
61201;DHT22;47065;52.898;6.992;2023-08-08T04:19:15;13.40;99.90
61201;DHT22;47065;52.898;6.992;2023-08-08T04:21:41;13.40;99.90
61201;DHT22;47065;52.898;6.992;2023-08-08T04:24:07;13.40;99.90
61201;DHT22;47065;52.898;6.992;2023-08-08T04:26:33;13.40;99.90
61201;DHT22;47065;52.898;6.992;2023-08-08T04:28:59;13.40;99.90
61201;DHT22;47065;52.898;6.992;2023-08-08T04:31:25;13.40;99.90
61201;DHT22;47065;52.898;6.992;2023-08-08T04:33:51;13.40;99.90
61201;DHT22;47065;52.898;6.992;2023-08-08T04:36:17;13.40;99.90
61201;DHT22;47065;52.898;6.992;2023-08-08T04:38:43;13.40;99.90
61201;DHT22;47065;52.898;6.992;2023-08-08T04:41:09;13.40;99.90
61201;DHT22;47065;52.898;6.992;2023-08-08T04:43:34;13.40;99.90
61201;DHT22;47065;52.898;6.992;2023-08-08T04:46:00;13.50;99.90
61201;DHT22;47065;52.898;6.992;2023-08-08T04:48:26;13.50;99.90
61201;DHT22;47065;52.898;6.992;2023-08-08T04:50:51;13.50;99.90
61201;DHT22;47065;52.898;6.992;2023-08-08T04:53:17;13.50;99.90
61201;DHT22;47065;52.898;6.992;2023-08-08T04:55:42;13.50;99.90
61201;DHT22;47065;52.898;6.992;2023-08-08T04:58:08;13.50;99.90
61201;DHT22;47065;52.898;6.992;2023-08-08T05:00:34;13.60;99.90
61201;DHT22;47065;52.898;6.992;2023-08-08T05:02:59;13.50;99.90
61201;DHT22;47065;52.898;6.992;2023-08-08T05:05:25;13.60;99.90
61201;DHT22;47065;52.898;6.992;2023-08-08T05:07:51;13.60;99.90
61201;DHT22;47065;52.898;6.992;2023-08-08T05:10:16;13.60;99.90
61201;DHT22;47065;52.898;6.992;2023-08-08T05:12:42;13.60;99.90
61201;DHT22;47065;52.898;6.992;2023-08-08T05:15:08;13.70;99.90
61201;DHT22;47065;52.898;6.992;2023-08-08T05:17:34;13.70;99.90
61201;DHT22;47065;52.898;6.992;2023-08-08T05:19:59;13.70;99.90
61201;DHT22;47065;52.898;6.992;2023-08-08T05:22:25;13.70;99.90
61201;DHT22;47065;52.898;6.992;2023-08-08T05:24:51;13.70;99.90
61201;DHT22;47065;52.898;6.992;2023-08-08T05:27:17;13.70;99.90
61201;DHT22;47065;52.898;6.992;2023-08-08T05:29:42;13.70;99.90
61201;DHT22;47065;52.898;6.992;2023-08-08T05:32:08;13.70;99.90
61201;DHT22;47065;52.898;6.992;2023-08-08T05:34:34;13.70;99.90
61201;DHT22;47065;52.898;6.992;2023-08-08T05:37:00;13.70;99.90
61201;DHT22;47065;52.898;6.992;2023-08-08T05:39:26;13.70;99.90
61201;DHT22;47065;52.898;6.992;2023-08-08T05:41:52;13.70;99.90
61201;DHT22;47065;52.898;6.992;2023-08-08T05:44:18;13.70;99.90
61201;DHT22;47065;52.898;6.992;2023-08-08T05:46:44;13.80;99.90
61201;DHT22;47065;52.898;6.992;2023-08-08T05:49:09;13.90;99.90
61201;DHT22;47065;52.898;6.992;2023-08-08T05:51:35;13.90;99.90
61201;DHT22;47065;52.898;6.992;2023-08-08T05:54:00;14.00;99.90
61201;DHT22;47065;52.898;6.992;2023-08-08T05:56:37;14.10;99.90
61201;DHT22;47065;52.898;6.992;2023-08-08T05:59:03;14.20;99.90
61201;DHT22;47065;52.898;6.992;2023-08-08T06:01:30;14.30;99.90
61201;DHT22;47065;52.898;6.992;2023-08-08T06:03:55;14.30;99.90
61201;DHT22;47065;52.898;6.992;2023-08-08T06:06:23;14.50;99.90
61201;DHT22;47065;52.898;6.992;2023-08-08T06:08:49;14.50;99.90
61201;DHT22;47065;52.898;6.992;2023-08-08T06:11:14;14.60;99.90
61201;DHT22;47065;52.898;6.992;2023-08-08T06:13:40;14.60;99.90
61201;DHT22;47065;52.898;6.992;2023-08-08T06:16:05;14.60;99.90
61201;DHT22;47065;52.898;6.992;2023-08-08T06:18:35;14.70;99.90
61201;DHT22;47065;52.898;6.992;2023-08-08T06:21:01;14.70;99.90
61201;DHT22;47065;52.898;6.992;2023-08-08T06:23:27;14.70;99.90
61201;DHT22;47065;52.898;6.992;2023-08-08T06:25:53;14.70;99.90
61201;DHT22;47065;52.898;6.992;2023-08-08T06:28:19;14.70;99.90
61201;DHT22;47065;52.898;6.992;2023-08-08T06:30:44;14.70;99.90
61201;DHT22;47065;52.898;6.992;2023-08-08T06:33:10;14.70;99.90
61201;DHT22;47065;52.898;6.992;2023-08-08T06:35:36;14.70;99.90
61201;DHT22;47065;52.898;6.992;2023-08-08T06:38:02;14.80;99.90
61201;DHT22;47065;52.898;6.992;2023-08-08T06:40:28;14.80;99.90
61201;DHT22;47065;52.898;6.992;2023-08-08T06:42:54;14.80;99.90
61201;DHT22;47065;52.898;6.992;2023-08-08T06:45:20;14.80;99.90
61201;DHT22;47065;52.898;6.992;2023-08-08T06:47:46;14.90;99.90
61201;DHT22;47065;52.898;6.992;2023-08-08T06:50:12;14.90;99.90
61201;DHT22;47065;52.898;6.992;2023-08-08T06:52:38;15.00;99.90
61201;DHT22;47065;52.898;6.992;2023-08-08T06:55:04;15.00;99.90
61201;DHT22;47065;52.898;6.992;2023-08-08T06:57:32;15.10;99.90
61201;DHT22;47065;52.898;6.992;2023-08-08T06:59:58;15.20;99.90
61201;DHT22;47065;52.898;6.992;2023-08-08T07:02:24;15.20;99.90
61201;DHT22;47065;52.898;6.992;2023-08-08T07:04:49;15.30;99.90
61201;DHT22;47065;52.898;6.992;2023-08-08T07:07:15;15.40;99.90
61201;DHT22;47065;52.898;6.992;2023-08-08T07:09:41;15.50;99.90
61201;DHT22;47065;52.898;6.992;2023-08-08T07:12:07;15.50;99.90
61201;DHT22;47065;52.898;6.992;2023-08-08T07:14:33;15.60;99.90
61201;DHT22;47065;52.898;6.992;2023-08-08T07:16:58;15.70;99.90
61201;DHT22;47065;52.898;6.992;2023-08-08T07:19:24;15.80;99.90
61201;DHT22;47065;52.898;6.992;2023-08-08T07:21:50;15.80;99.90
61201;DHT22;47065;52.898;6.992;2023-08-08T07:24:16;15.80;99.90
61201;DHT22;47065;52.898;6.992;2023-08-08T07:26:42;15.90;99.90
61201;DHT22;47065;52.898;6.992;2023-08-08T07:29:07;15.90;99.90
61201;DHT22;47065;52.898;6.992;2023-08-08T07:31:33;16.00;99.90
61201;DHT22;47065;52.898;6.992;2023-08-08T07:33:59;16.00;99.90
61201;DHT22;47065;52.898;6.992;2023-08-08T07:36:25;16.10;99.90
61201;DHT22;47065;52.898;6.992;2023-08-08T07:38:51;16.20;99.90
61201;DHT22;47065;52.898;6.992;2023-08-08T07:41:16;16.30;99.90
61201;DHT22;47065;52.898;6.992;2023-08-08T07:43:43;16.30;99.90
61201;DHT22;47065;52.898;6.992;2023-08-08T07:46:09;16.40;99.90
61201;DHT22;47065;52.898;6.992;2023-08-08T07:48:35;16.50;99.90
61201;DHT22;47065;52.898;6.992;2023-08-08T07:51:01;16.50;99.90
61201;DHT22;47065;52.898;6.992;2023-08-08T07:53:26;16.50;99.90
61201;DHT22;47065;52.898;6.992;2023-08-08T07:55:52;16.60;99.90
61201;DHT22;47065;52.898;6.992;2023-08-08T07:58:18;16.70;99.90
61201;DHT22;47065;52.898;6.992;2023-08-08T08:00:44;16.80;99.90
61201;DHT22;47065;52.898;6.992;2023-08-08T08:03:10;16.90;99.90
61201;DHT22;47065;52.898;6.992;2023-08-08T08:05:35;17.00;99.90
61201;DHT22;47065;52.898;6.992;2023-08-08T08:08:03;17.20;99.90
61201;DHT22;47065;52.898;6.992;2023-08-08T08:10:29;17.30;99.90
61201;DHT22;47065;52.898;6.992;2023-08-08T08:12:54;17.40;99.90
61201;DHT22;47065;52.898;6.992;2023-08-08T08:15:24;17.50;99.90
61201;DHT22;47065;52.898;6.992;2023-08-08T08:17:50;17.50;99.90
61201;DHT22;47065;52.898;6.992;2023-08-08T08:20:15;17.60;99.90
61201;DHT22;47065;52.898;6.992;2023-08-08T08:22:41;17.60;99.90
61201;DHT22;47065;52.898;6.992;2023-08-08T08:25:07;17.70;99.90
61201;DHT22;47065;52.898;6.992;2023-08-08T08:27:37;17.80;99.90
61201;DHT22;47065;52.898;6.992;2023-08-08T08:30:06;17.80;99.90
61201;DHT22;47065;52.898;6.992;2023-08-08T08:32:33;17.90;99.90
61201;DHT22;47065;52.898;6.992;2023-08-08T08:35:01;18.00;99.90
61201;DHT22;47065;52.898;6.992;2023-08-08T08:37:27;18.00;99.90
61201;DHT22;47065;52.898;6.992;2023-08-08T08:39:52;18.20;99.90
61201;DHT22;47065;52.898;6.992;2023-08-08T08:42:18;18.20;99.90
61201;DHT22;47065;52.898;6.992;2023-08-08T08:44:44;18.30;99.90
61201;DHT22;47065;52.898;6.992;2023-08-08T08:47:13;18.50;99.90
61201;DHT22;47065;52.898;6.992;2023-08-08T08:49:42;18.70;99.90
61201;DHT22;47065;52.898;6.992;2023-08-08T08:52:08;18.90;99.90
61201;DHT22;47065;52.898;6.992;2023-08-08T08:54:34;19.40;99.90
61201;DHT22;47065;52.898;6.992;2023-08-08T08:57:01;20.10;99.90
61201;DHT22;47065;52.898;6.992;2023-08-08T08:59:26;20.50;99.90
61201;DHT22;47065;52.898;6.992;2023-08-08T09:01:53;20.80;99.90
61201;DHT22;47065;52.898;6.992;2023-08-08T09:04:20;21.00;99.90
61201;DHT22;47065;52.898;6.992;2023-08-08T09:06:47;21.00;99.90
61201;DHT22;47065;52.898;6.992;2023-08-08T09:09:13;20.80;99.90
61201;DHT22;47065;52.898;6.992;2023-08-08T09:11:43;20.50;99.90
61201;DHT22;47065;52.898;6.992;2023-08-08T09:14:24;20.30;99.90
61201;DHT22;47065;52.898;6.992;2023-08-08T09:16:51;20.10;99.90
61201;DHT22;47065;52.898;6.992;2023-08-08T09:19:19;19.90;99.90
61201;DHT22;47065;52.898;6.992;2023-08-08T09:21:45;19.60;99.90
61201;DHT22;47065;52.898;6.992;2023-08-08T09:24:11;19.30;99.90
61201;DHT22;47065;52.898;6.992;2023-08-08T09:26:38;19.00;99.90
61201;DHT22;47065;52.898;6.992;2023-08-08T09:29:04;18.70;99.90
61201;DHT22;47065;52.898;6.992;2023-08-08T09:31:31;18.50;99.90
61201;DHT22;47065;52.898;6.992;2023-08-08T09:33:58;18.30;99.90
61201;DHT22;47065;52.898;6.992;2023-08-08T09:36:24;18.30;99.90
61201;DHT22;47065;52.898;6.992;2023-08-08T09:38:51;18.30;99.90
61201;DHT22;47065;52.898;6.992;2023-08-08T09:41:17;18.30;99.90
61201;DHT22;47065;52.898;6.992;2023-08-08T09:43:47;18.10;99.90
61201;DHT22;47065;52.898;6.992;2023-08-08T09:46:12;17.90;99.90
61201;DHT22;47065;52.898;6.992;2023-08-08T09:48:40;17.60;99.90
61201;DHT22;47065;52.898;6.992;2023-08-08T09:51:06;17.50;99.90
61201;DHT22;47065;52.898;6.992;2023-08-08T09:53:33;17.30;99.90
61201;DHT22;47065;52.898;6.992;2023-08-08T09:56:01;17.20;99.90
61201;DHT22;47065;52.898;6.992;2023-08-08T09:58:29;17.20;99.90
61201;DHT22;47065;52.898;6.992;2023-08-08T10:00:54;17.30;99.90
61201;DHT22;47065;52.898;6.992;2023-08-08T10:03:20;17.70;99.90
61201;DHT22;47065;52.898;6.992;2023-08-08T10:05:47;18.30;99.90
61201;DHT22;47065;52.898;6.992;2023-08-08T10:08:15;18.70;99.90
61201;DHT22;47065;52.898;6.992;2023-08-08T10:10:46;18.80;99.90
61201;DHT22;47065;52.898;6.992;2023-08-08T10:13:23;18.50;99.90
61201;DHT22;47065;52.898;6.992;2023-08-08T10:15:49;18.20;99.90
61201;DHT22;47065;52.898;6.992;2023-08-08T10:18:15;18.00;99.90
61201;DHT22;47065;52.898;6.992;2023-08-08T10:20:46;18.20;99.90
61201;DHT22;47065;52.898;6.992;2023-08-08T10:23:15;18.40;99.90
61201;DHT22;47065;52.898;6.992;2023-08-08T10:25:46;18.60;99.90
61201;DHT22;47065;52.898;6.992;2023-08-08T10:28:13;18.80;99.90
61201;DHT22;47065;52.898;6.992;2023-08-08T10:30:47;19.00;99.90
61201;DHT22;47065;52.898;6.992;2023-08-08T10:33:21;19.10;99.90
61201;DHT22;47065;52.898;6.992;2023-08-08T10:38:25;19.00;99.90
61201;DHT22;47065;52.898;6.992;2023-08-08T10:40:58;18.90;99.90
61201;DHT22;47065;52.898;6.992;2023-08-08T10:43:28;18.90;99.90
61201;DHT22;47065;52.898;6.992;2023-08-08T10:46:01;19.00;99.90
61201;DHT22;47065;52.898;6.992;2023-08-08T10:48:27;19.10;99.90
61201;DHT22;47065;52.898;6.992;2023-08-08T10:50:55;19.20;99.90
61201;DHT22;47065;52.898;6.992;2023-08-08T10:53:26;19.30;99.90
61201;DHT22;47065;52.898;6.992;2023-08-08T10:56:00;19.30;99.90
61201;DHT22;47065;52.898;6.992;2023-08-08T10:58:38;19.40;99.90
61201;DHT22;47065;52.898;6.992;2023-08-08T11:01:05;19.50;99.90
61201;DHT22;47065;52.898;6.992;2023-08-08T11:03:37;19.60;99.90
61201;DHT22;47065;52.898;6.992;2023-08-08T11:06:06;19.80;99.90
61201;DHT22;47065;52.898;6.992;2023-08-08T11:08:32;19.90;99.90
61201;DHT22;47065;52.898;6.992;2023-08-08T11:10:59;20.10;99.90
61201;DHT22;47065;52.898;6.992;2023-08-08T11:13:25;20.20;99.90
61201;DHT22;47065;52.898;6.992;2023-08-08T11:15:50;20.30;99.90
61201;DHT22;47065;52.898;6.992;2023-08-08T11:18:17;20.50;99.90
61201;DHT22;47065;52.898;6.992;2023-08-08T11:20:43;20.50;99.90
61201;DHT22;47065;52.898;6.992;2023-08-08T11:23:10;20.60;99.90
61201;DHT22;47065;52.898;6.992;2023-08-08T11:25:40;20.60;99.90
61201;DHT22;47065;52.898;6.992;2023-08-08T11:28:06;20.50;99.90
61201;DHT22;47065;52.898;6.992;2023-08-08T11:30:38;20.60;99.90
61201;DHT22;47065;52.898;6.992;2023-08-08T11:33:04;20.60;99.90
61201;DHT22;47065;52.898;6.992;2023-08-08T11:35:30;20.70;99.90
61201;DHT22;47065;52.898;6.992;2023-08-08T11:37:57;20.80;99.90
61201;DHT22;47065;52.898;6.992;2023-08-08T11:40:26;20.80;99.90
61201;DHT22;47065;52.898;6.992;2023-08-08T11:42:53;20.70;99.90
61201;DHT22;47065;52.898;6.992;2023-08-08T11:45:19;20.60;99.90
61201;DHT22;47065;52.898;6.992;2023-08-08T11:47:53;20.40;99.90
61201;DHT22;47065;52.898;6.992;2023-08-08T11:50:20;20.30;99.90
61201;DHT22;47065;52.898;6.992;2023-08-08T11:52:49;20.30;99.90
61201;DHT22;47065;52.898;6.992;2023-08-08T11:55:16;20.30;99.90
61201;DHT22;47065;52.898;6.992;2023-08-08T11:57:41;20.20;99.90
61201;DHT22;47065;52.898;6.992;2023-08-08T12:00:09;20.10;99.90
61201;DHT22;47065;52.898;6.992;2023-08-08T12:02:35;20.00;99.90
61201;DHT22;47065;52.898;6.992;2023-08-08T12:05:08;20.00;99.90
61201;DHT22;47065;52.898;6.992;2023-08-08T12:07:35;20.00;99.90
61201;DHT22;47065;52.898;6.992;2023-08-08T12:10:03;20.00;99.90
61201;DHT22;47065;52.898;6.992;2023-08-08T12:12:31;20.00;99.90
61201;DHT22;47065;52.898;6.992;2023-08-08T12:14:58;20.10;99.90
61201;DHT22;47065;52.898;6.992;2023-08-08T12:17:29;20.20;99.90
61201;DHT22;47065;52.898;6.992;2023-08-08T12:19:54;20.30;98.10
61201;DHT22;47065;52.898;6.992;2023-08-08T12:22:24;20.40;98.10
61201;DHT22;47065;52.898;6.992;2023-08-08T12:24:49;20.50;97.20
61201;DHT22;47065;52.898;6.992;2023-08-08T12:27:15;20.50;97.20
61201;DHT22;47065;52.898;6.992;2023-08-08T12:29:40;20.50;98.90
61201;DHT22;47065;52.898;6.992;2023-08-08T12:32:06;20.50;99.90
61201;DHT22;47065;52.898;6.992;2023-08-08T12:34:34;20.60;99.90
61201;DHT22;47065;52.898;6.992;2023-08-08T12:36:59;20.50;99.60
61201;DHT22;47065;52.898;6.992;2023-08-08T12:39:25;20.40;99.90
61201;DHT22;47065;52.898;6.992;2023-08-08T12:41:51;20.30;98.50
61201;DHT22;47065;52.898;6.992;2023-08-08T12:44:17;20.20;99.10
61201;DHT22;47065;52.898;6.992;2023-08-08T12:46:43;20.20;98.20
61201;DHT22;47065;52.898;6.992;2023-08-08T12:49:08;20.20;99.10
61201;DHT22;47065;52.898;6.992;2023-08-08T12:51:34;20.20;99.90
61201;DHT22;47065;52.898;6.992;2023-08-08T12:53:59;20.20;99.60
61201;DHT22;47065;52.898;6.992;2023-08-08T12:56:25;20.30;96.50
61201;DHT22;47065;52.898;6.992;2023-08-08T12:58:51;20.20;93.60
61201;DHT22;47065;52.898;6.992;2023-08-08T13:01:16;20.10;95.40
61201;DHT22;47065;52.898;6.992;2023-08-08T13:03:42;20.10;95.70
61201;DHT22;47065;52.898;6.992;2023-08-08T13:06:07;20.20;95.80
61201;DHT22;47065;52.898;6.992;2023-08-08T13:08:36;20.30;97.20
61201;DHT22;47065;52.898;6.992;2023-08-08T13:11:02;20.40;96.90
61201;DHT22;47065;52.898;6.992;2023-08-08T13:13:28;20.60;97.20
61201;DHT22;47065;52.898;6.992;2023-08-08T13:15:54;20.60;95.20
61201;DHT22;47065;52.898;6.992;2023-08-08T13:18:20;20.40;95.20
61201;DHT22;47065;52.898;6.992;2023-08-08T13:20:45;20.20;95.10
61201;DHT22;47065;52.898;6.992;2023-08-08T13:23:11;19.90;95.40
61201;DHT22;47065;52.898;6.992;2023-08-08T13:25:37;19.70;97.20
61201;DHT22;47065;52.898;6.992;2023-08-08T13:28:03;19.40;98.20
61201;DHT22;47065;52.898;6.992;2023-08-08T13:30:29;19.30;99.40
61201;DHT22;47065;52.898;6.992;2023-08-08T13:32:55;19.30;99.30
61201;DHT22;47065;52.898;6.992;2023-08-08T13:35:20;19.30;99.40
61201;DHT22;47065;52.898;6.992;2023-08-08T13:37:46;19.10;99.60
61201;DHT22;47065;52.898;6.992;2023-08-08T13:40:16;18.90;99.90
61201;DHT22;47065;52.898;6.992;2023-08-08T13:42:42;18.80;99.90
61201;DHT22;47065;52.898;6.992;2023-08-08T13:45:08;18.80;99.90
61201;DHT22;47065;52.898;6.992;2023-08-08T13:47:34;18.90;99.90
61201;DHT22;47065;52.898;6.992;2023-08-08T13:50:01;19.00;99.90
61201;DHT22;47065;52.898;6.992;2023-08-08T13:52:26;19.20;99.90
61201;DHT22;47065;52.898;6.992;2023-08-08T13:54:52;19.50;99.90
61201;DHT22;47065;52.898;6.992;2023-08-08T13:57:19;19.80;99.90
61201;DHT22;47065;52.898;6.992;2023-08-08T13:59:45;20.00;99.90
61201;DHT22;47065;52.898;6.992;2023-08-08T14:02:10;20.10;99.80
61201;DHT22;47065;52.898;6.992;2023-08-08T14:04:36;20.10;99.70
61201;DHT22;47065;52.898;6.992;2023-08-08T14:07:02;20.10;99.90
61201;DHT22;47065;52.898;6.992;2023-08-08T14:09:27;20.20;99.40
61201;DHT22;47065;52.898;6.992;2023-08-08T14:11:53;20.20;99.20
61201;DHT22;47065;52.898;6.992;2023-08-08T14:14:19;20.20;96.50
61201;DHT22;47065;52.898;6.992;2023-08-08T14:16:44;20.10;95.50
61201;DHT22;47065;52.898;6.992;2023-08-08T14:19:10;20.10;93.90
61201;DHT22;47065;52.898;6.992;2023-08-08T14:21:35;20.10;95.00
61201;DHT22;47065;52.898;6.992;2023-08-08T14:24:01;20.20;93.10
61201;DHT22;47065;52.898;6.992;2023-08-08T14:26:29;20.10;93.90
61201;DHT22;47065;52.898;6.992;2023-08-08T14:28:54;20.10;94.00
61201;DHT22;47065;52.898;6.992;2023-08-08T14:31:20;19.90;94.10
61201;DHT22;47065;52.898;6.992;2023-08-08T14:33:45;19.90;94.60
61201;DHT22;47065;52.898;6.992;2023-08-08T14:36:11;19.80;95.20
61201;DHT22;47065;52.898;6.992;2023-08-08T14:38:37;19.80;96.50
61201;DHT22;47065;52.898;6.992;2023-08-08T14:41:03;19.80;96.90
61201;DHT22;47065;52.898;6.992;2023-08-08T14:43:29;19.70;97.30
61201;DHT22;47065;52.898;6.992;2023-08-08T14:45:54;19.70;96.80
61201;DHT22;47065;52.898;6.992;2023-08-08T14:48:20;19.70;96.90
61201;DHT22;47065;52.898;6.992;2023-08-08T14:50:46;19.80;96.30
61201;DHT22;47065;52.898;6.992;2023-08-08T14:53:11;19.80;96.60
61201;DHT22;47065;52.898;6.992;2023-08-08T14:55:38;19.80;96.30
61201;DHT22;47065;52.898;6.992;2023-08-08T14:58:04;19.80;96.70
61201;DHT22;47065;52.898;6.992;2023-08-08T15:00:30;19.80;96.90
61201;DHT22;47065;52.898;6.992;2023-08-08T15:02:55;19.70;97.30
61201;DHT22;47065;52.898;6.992;2023-08-08T15:05:22;19.60;98.10
61201;DHT22;47065;52.898;6.992;2023-08-08T15:07:49;19.50;98.50
61201;DHT22;47065;52.898;6.992;2023-08-08T15:10:14;19.40;98.60
61201;DHT22;47065;52.898;6.992;2023-08-08T15:12:40;19.20;96.50
61201;DHT22;47065;52.898;6.992;2023-08-08T15:15:06;19.10;96.80
61201;DHT22;47065;52.898;6.992;2023-08-08T15:17:33;19.00;97.80
61201;DHT22;47065;52.898;6.992;2023-08-08T15:20:00;18.90;97.40
61201;DHT22;47065;52.898;6.992;2023-08-08T15:22:26;18.90;97.40
61201;DHT22;47065;52.898;6.992;2023-08-08T15:24:51;18.70;97.70
61201;DHT22;47065;52.898;6.992;2023-08-08T15:27:17;18.60;98.80
61201;DHT22;47065;52.898;6.992;2023-08-08T15:29:43;18.60;98.50
61201;DHT22;47065;52.898;6.992;2023-08-08T15:32:08;18.70;98.80